Abercarn, United Kingdom
Current Conditions -  °F | °C
As of 7:50 AM on Monday 22 Dec 2014 (Local Time) from EGFF Reporting Station
Overcast Overcast  
Wind Chill: 52°   Ceiling: 1200
Heat Index: 52°   Visibility: 6mi
Dew Point: 50°   Wind: 21mph
Humidity: 94%   Direction: 260°W
Pressure: 30.09"   Gusts: NA
Location:  51.65°N, 3.13°W
Report Text: EGFF 220750Z AUTO 26018KT 9999 OVC012 11/10 Q1019
Loading
Personal Weather Stations






























Interactive Weather Map New forecast layout! Learn more

10-Day Weather Forecast

Advertisements
Track Severe Weather on mobile